createdAt,value
2018-08-22T00:02:18.287Z,90.10
2018-08-22T00:04:47.236Z,90.30
2018-08-22T00:09:46.169Z,90.60
2018-08-22T00:17:10.464Z,91.30
2018-08-22T00:19:38.980Z,91.60
2018-08-22T00:22:07.497Z,91.80
2018-08-22T00:24:36.289Z,92.10
2018-08-22T00:27:04.892Z,92.30
2018-08-22T00:29:33.683Z,92.00
2018-08-22T00:32:02.242Z,92.30
2018-08-22T00:34:30.732Z,92.30
2018-08-22T00:36:59.242Z,92.40
2018-08-22T00:39:27.750Z,92.70
2018-08-22T00:41:56.819Z,92.80
2018-08-22T00:44:25.318Z,92.80
2018-08-22T00:46:53.859Z,92.70
2018-08-22T00:49:22.438Z,92.50
2018-08-22T00:51:50.949Z,92.30
2018-08-22T00:54:19.481Z,92.70
2018-08-22T00:56:47.949Z,92.50
2018-08-22T00:59:17.392Z,92.90
2018-08-22T01:01:45.893Z,93.00
2018-08-22T01:09:11.191Z,93.20
2018-08-22T01:11:39.672Z,93.50
2018-08-22T01:14:08.185Z,93.60
2018-08-22T01:16:36.704Z,93.90
2018-08-22T01:19:05.231Z,94.10
2018-08-22T01:21:33.696Z,94.00
2018-08-22T01:24:02.852Z,94.10
2018-08-22T01:26:32.185Z,94.10
2018-08-22T01:29:00.664Z,94.30
2018-08-22T01:31:30.484Z,94.20
2018-08-22T01:33:59.065Z,94.20
2018-08-22T01:36:27.663Z,94.10
2018-08-22T01:38:56.206Z,94.20
2018-08-22T01:41:24.740Z,94.30
2018-08-22T01:43:53.294Z,94.40
2018-08-22T01:46:21.825Z,94.40
2018-08-22T01:48:50.373Z,94.60
2018-08-22T01:51:18.857Z,94.40
2018-08-22T01:53:47.944Z,94.40
2018-08-22T01:56:17.409Z,94.60
2018-08-22T01:58:45.994Z,94.40
2018-08-22T02:06:08.816Z,94.50
2018-08-22T02:08:37.545Z,94.90
2018-08-22T02:11:06.837Z,94.80
2018-08-22T02:13:36.089Z,94.80
2018-08-22T02:16:04.843Z,95.00
2018-08-22T02:18:33.309Z,94.90
2018-08-22T02:21:01.844Z,95.00
2018-08-22T02:23:30.367Z,95.00
2018-08-22T02:25:59.179Z,95.40
2018-08-22T02:28:27.745Z,95.30
2018-08-22T02:30:56.245Z,95.60
2018-08-22T02:33:24.793Z,95.50
2018-08-22T02:35:53.861Z,95.60
2018-08-22T02:38:24.587Z,95.90
2018-08-22T02:40:55.275Z,95.80
2018-08-22T02:43:24.010Z,95.70
2018-08-22T02:45:52.488Z,96.00
2018-08-22T02:48:21.034Z,96.20
2018-08-22T02:50:52.385Z,96.70
2018-08-22T02:53:20.877Z,96.60
2018-08-22T02:55:50.920Z,96.80
2018-08-22T02:58:19.391Z,97.20
2018-08-22T03:00:47.923Z,97.50
2018-08-22T03:03:17.481Z,97.50
2018-08-22T03:05:46.053Z,97.60
2018-08-22T03:13:11.506Z,97.80
2018-08-22T03:15:39.989Z,97.70
2018-08-22T03:18:08.794Z,97.40
2018-08-22T03:20:37.520Z,97.60
2018-08-22T03:23:06.000Z,97.50
2018-08-22T03:25:34.509Z,97.50
2018-08-22T03:28:03.021Z,97.80
2018-08-22T03:30:31.558Z,97.20
2018-08-22T03:33:00.093Z,97.50
2018-08-22T03:35:30.326Z,97.70
2018-08-22T03:37:58.831Z,97.70
2018-08-22T03:40:27.685Z,97.90
2018-08-22T03:42:56.274Z,97.70
2018-08-22T03:45:24.734Z,97.80
2018-08-22T03:47:53.348Z,97.90
2018-08-22T03:50:21.922Z,98.20
2018-08-22T03:52:50.397Z,98.20
2018-08-22T03:55:18.872Z,98.40
2018-08-22T03:57:47.467Z,98.40
2018-08-22T04:00:17.385Z,98.40
2018-08-22T04:02:45.933Z,98.50
2018-08-22T04:10:07.702Z,98.60
2018-08-22T04:12:36.191Z,98.80
2018-08-22T04:15:04.757Z,99.00
2018-08-22T04:17:37.644Z,98.90
2018-08-22T04:20:06.818Z,99.10
2018-08-22T04:22:36.519Z,99.00
2018-08-22T04:25:05.226Z,99.30
2018-08-22T04:27:33.757Z,99.30
2018-08-22T04:30:02.240Z,98.90
2018-08-22T04:32:30.761Z,98.70
2018-08-22T04:34:59.294Z,98.70
2018-08-22T04:37:27.885Z,98.90
2018-08-22T04:39:56.829Z,98.70
2018-08-22T04:42:25.306Z,98.70
2018-08-22T04:44:53.822Z,99.00
2018-08-22T04:47:22.552Z,99.30
2018-08-22T04:49:51.509Z,99.30
2018-08-22T04:52:20.022Z,99.10
2018-08-22T04:54:48.757Z,98.60
2018-08-22T04:57:17.531Z,98.90
2018-08-22T04:59:46.097Z,98.70
2018-08-22T05:07:10.438Z,98.90
2018-08-22T05:09:38.942Z,99.10
2018-08-22T05:12:08.018Z,99.30
2018-08-22T05:14:37.185Z,99.20
2018-08-22T05:17:06.197Z,99.30
2018-08-22T05:19:34.729Z,99.20
2018-08-22T05:22:03.278Z,99.20
2018-08-22T05:24:32.027Z,99.10
2018-08-22T05:27:00.556Z,98.80
2018-08-22T05:29:29.154Z,98.90
2018-08-22T05:31:59.077Z,98.60
2018-08-22T05:34:29.103Z,98.40
2018-08-22T05:36:57.609Z,98.50
2018-08-22T05:39:26.119Z,98.30
2018-08-22T05:41:54.601Z,98.00
2018-08-22T05:44:23.145Z,98.10
2018-08-22T05:46:51.618Z,97.80
2018-08-22T05:49:20.110Z,97.50
2018-08-22T05:51:49.363Z,97.40
2018-08-22T05:54:17.963Z,97.50
2018-08-22T05:56:47.356Z,97.10
2018-08-22T05:59:17.431Z,96.90
2018-08-22T06:01:46.517Z,97.20
2018-08-22T06:09:11.589Z,96.70
2018-08-22T06:11:40.112Z,96.70
2018-08-22T06:14:09.028Z,96.80
2018-08-22T06:16:37.951Z,96.90
2018-08-22T06:19:06.548Z,96.70
2018-08-22T06:21:35.009Z,96.60
2018-08-22T06:24:03.549Z,96.40
2018-08-22T06:26:32.569Z,96.00
2018-08-22T06:29:01.124Z,95.40
2018-08-22T06:31:29.913Z,94.00
2018-08-22T06:33:58.366Z,91.70
2018-08-22T06:36:26.995Z,88.20
2018-08-22T06:38:55.417Z,80.30
2018-08-22T06:41:24.249Z,74.90
2018-08-22T06:43:52.738Z,66.20
2018-08-22T06:46:21.257Z,62.20
2018-08-22T06:48:50.471Z,57.30
2018-08-22T06:51:19.401Z,55.20
2018-08-22T06:53:48.615Z,52.10
2018-08-22T06:56:17.441Z,50.50
2018-08-22T06:58:46.583Z,49.70
2018-08-22T07:06:09.181Z,45.40
2018-08-22T07:08:37.662Z,43.60
2018-08-22T07:13:35.119Z,39.50
2018-08-22T07:16:04.256Z,38.30
2018-08-22T07:18:32.795Z,37.20
2018-08-22T07:21:01.443Z,36.20
2018-08-22T07:23:30.121Z,35.50
2018-08-22T07:25:58.670Z,35.20
2018-08-22T07:28:27.223Z,34.70
2018-08-22T07:30:55.711Z,34.60
2018-08-22T07:33:24.206Z,33.30
2018-08-22T07:35:53.021Z,32.60
2018-08-22T07:38:21.606Z,31.90
2018-08-22T07:40:50.556Z,31.60
2018-08-22T07:43:19.114Z,31.90
2018-08-22T07:45:48.059Z,31.80
2018-08-22T07:48:18.580Z,31.70
2018-08-22T07:50:47.088Z,30.70
2018-08-22T07:53:17.526Z,30.10
2018-08-22T07:55:46.014Z,29.90
2018-08-22T08:03:13.445Z,29.00
2018-08-22T08:05:41.938Z,28.40
2018-08-22T08:08:10.454Z,27.80
2018-08-22T08:10:38.985Z,27.00
2018-08-22T08:13:14.109Z,27.50
2018-08-22T08:15:43.567Z,27.90
2018-08-22T08:18:12.627Z,27.90
2018-08-22T08:20:41.123Z,27.70
2018-08-22T08:23:09.687Z,27.60
2018-08-22T08:25:38.277Z,27.80
2018-08-22T08:28:06.838Z,27.80
2018-08-22T08:30:35.434Z,27.70
2018-08-22T08:33:03.897Z,27.50
2018-08-22T08:35:32.585Z,26.10
2018-08-22T08:38:01.129Z,27.20
2018-08-22T08:40:31.600Z,27.20
2018-08-22T08:43:00.222Z,27.00
2018-08-22T08:45:28.994Z,26.80
2018-08-22T08:47:57.450Z,26.10
2018-08-22T08:50:25.970Z,26.40
2018-08-22T08:52:54.565Z,26.90
2018-08-22T08:55:23.062Z,26.70
2018-08-22T08:57:51.594Z,26.00
2018-08-22T09:00:20.193Z,25.60
2018-08-22T09:02:50.116Z,25.20
2018-08-22T09:05:18.669Z,24.80
2018-08-22T09:07:47.692Z,24.70
2018-08-22T09:15:09.206Z,25.30
2018-08-22T09:17:37.718Z,24.20
2018-08-22T09:20:07.802Z,24.50
2018-08-22T09:22:36.375Z,25.10
2018-08-22T09:25:04.998Z,25.30
2018-08-22T09:27:33.467Z,25.20
2018-08-22T09:30:03.153Z,25.20
2018-08-22T09:32:31.613Z,25.40
2018-08-22T09:35:01.617Z,25.90
2018-08-22T09:37:30.121Z,26.00
2018-08-22T09:39:58.689Z,25.80
2018-08-22T09:42:27.142Z,25.00
2018-08-22T09:44:55.734Z,24.90
2018-08-22T09:47:24.181Z,24.30
2018-08-22T09:49:52.624Z,24.60
2018-08-22T09:52:21.594Z,24.40
2018-08-22T09:55:01.537Z,24.60
2018-08-22T09:57:30.616Z,24.50
2018-08-22T09:59:59.114Z,24.60
2018-08-22T10:02:27.616Z,25.60
2018-08-22T10:04:56.356Z,25.80
2018-08-22T10:07:24.961Z,25.90
2018-08-22T10:09:53.496Z,26.10
2018-08-22T10:12:22.401Z,27.00
2018-08-22T10:14:51.456Z,27.20
2018-08-22T10:17:20.013Z,27.50
2018-08-22T10:19:48.469Z,28.50
2018-08-22T10:22:17.794Z,29.30
2018-08-22T10:24:46.322Z,29.90
2018-08-22T10:32:11.044Z,31.80
2018-08-22T10:34:39.545Z,34.70
2018-08-22T10:37:08.005Z,36.00
2018-08-22T10:39:36.607Z,37.10
2018-08-22T10:42:05.089Z,37.30
2018-08-22T10:44:33.630Z,38.10
2018-08-22T10:47:02.133Z,37.20
2018-08-22T10:49:30.622Z,37.20
2018-08-22T10:51:59.117Z,38.90
2018-08-22T10:54:28.601Z,39.40
2018-08-22T10:56:57.081Z,39.00
2018-08-22T10:59:25.547Z,39.60
2018-08-22T11:01:54.159Z,39.00
2018-08-22T11:04:22.615Z,39.60
2018-08-22T11:06:51.050Z,38.90
2018-08-22T11:09:19.582Z,38.70
2018-08-22T11:11:48.058Z,38.50
2018-08-22T11:14:17.438Z,38.10
2018-08-22T11:16:46.323Z,39.00
2018-08-22T11:24:23.106Z,40.60
2018-08-22T11:27:02.791Z,38.70
2018-08-22T11:29:42.541Z,39.10
2018-08-22T11:32:22.209Z,39.10
2018-08-22T11:34:51.438Z,38.40
2018-08-22T11:37:20.077Z,38.10
2018-08-22T11:39:50.597Z,38.30
2018-08-22T11:42:19.895Z,39.30
2018-08-22T11:44:48.351Z,39.10
2018-08-22T11:47:17.597Z,38.90
2018-08-22T11:49:46.125Z,38.90
2018-08-22T11:57:11.416Z,38.30
2018-08-22T11:59:40.972Z,39.30
2018-08-22T12:02:09.902Z,38.70
2018-08-22T12:04:38.628Z,38.10
2018-08-22T12:07:07.110Z,37.90
2018-08-22T12:09:35.579Z,38.00
2018-08-22T12:12:04.078Z,37.70
2018-08-22T12:14:32.588Z,37.60
2018-08-22T12:17:01.102Z,38.00
2018-08-22T12:19:30.322Z,38.90
2018-08-22T12:21:58.847Z,38.60
2018-08-22T12:24:27.909Z,39.60
2018-08-22T12:26:56.445Z,39.80
2018-08-22T12:29:24.922Z,38.50
2018-08-22T12:31:53.409Z,39.10
2018-08-22T12:34:22.693Z,39.20
2018-08-22T12:36:51.161Z,38.70
2018-08-22T12:39:19.633Z,37.90
2018-08-22T12:41:54.238Z,37.80
2018-08-22T12:44:22.781Z,38.50
2018-08-22T12:46:51.256Z,38.70
2018-08-22T12:49:19.889Z,38.80
2018-08-22T12:51:48.504Z,39.40
2018-08-22T12:54:17.509Z,38.60
2018-08-22T12:56:46.055Z,37.90
2018-08-22T13:04:15.372Z,37.70
2018-08-22T13:06:43.909Z,37.60
2018-08-22T13:09:13.503Z,37.90
2018-08-22T13:11:42.146Z,37.80
2018-08-22T13:14:10.812Z,37.90
2018-08-22T13:16:39.349Z,38.30
2018-08-22T13:19:07.909Z,38.90
2018-08-22T13:21:36.407Z,39.00
2018-08-22T13:24:05.013Z,38.70
2018-08-22T13:26:34.359Z,38.50
2018-08-22T13:29:02.976Z,38.70
2018-08-22T13:31:32.179Z,38.50
2018-08-22T13:34:00.688Z,38.70
2018-08-22T13:36:29.187Z,38.00
2018-08-22T13:38:58.056Z,37.80
2018-08-22T13:41:26.611Z,38.30
2018-08-22T13:43:55.152Z,38.60
2018-08-22T13:46:23.684Z,38.70
2018-08-22T13:48:52.555Z,38.40
2018-08-22T13:51:21.119Z,38.10
2018-08-22T13:53:49.632Z,37.70
2018-08-22T13:56:18.201Z,38.00
2018-08-22T13:58:47.024Z,37.40
2018-08-22T14:01:17.413Z,37.90
2018-08-22T14:03:45.930Z,37.20
2018-08-22T14:11:10.708Z,37.70
2018-08-22T14:13:39.230Z,36.80
2018-08-22T14:16:07.773Z,37.80
2018-08-22T14:18:36.321Z,37.30
2018-08-22T14:21:04.867Z,37.10
2018-08-22T14:23:33.412Z,36.90
2018-08-22T14:26:01.994Z,36.70
2018-08-22T14:28:31.273Z,36.50
2018-08-22T14:30:59.844Z,36.60
2018-08-22T14:33:28.692Z,37.70
2018-08-22T14:35:57.357Z,37.00
2018-08-22T14:38:25.988Z,37.00
2018-08-22T14:40:54.621Z,35.50
2018-08-22T14:43:23.353Z,35.40
2018-08-22T14:45:51.825Z,35.80
2018-08-22T14:48:20.360Z,35.40
2018-08-22T14:50:48.853Z,35.50
2018-08-22T14:53:17.358Z,36.60
2018-08-22T14:55:46.406Z,36.30
2018-08-22T15:03:09.533Z,33.40
2018-08-22T15:05:37.822Z,34.70
2018-08-22T15:08:06.342Z,34.30
2018-08-22T15:10:34.888Z,34.00
2018-08-22T15:13:03.432Z,33.10
2018-08-22T15:15:31.830Z,32.90
2018-08-22T15:18:00.571Z,32.90
2018-08-22T15:20:29.092Z,32.00
2018-08-22T15:22:58.930Z,32.90
2018-08-22T15:25:27.619Z,33.10
2018-08-22T15:27:56.065Z,32.20
2018-08-22T15:30:25.151Z,33.00
2018-08-22T15:32:53.709Z,33.40
2018-08-22T15:35:23.152Z,33.70
2018-08-22T15:37:51.732Z,33.80
2018-08-22T15:40:20.710Z,33.60
2018-08-22T15:42:49.205Z,34.40
2018-08-22T15:45:17.806Z,35.00
2018-08-22T15:47:46.397Z,35.20
2018-08-22T15:55:15.327Z,35.60
2018-08-22T15:57:55.358Z,34.60
2018-08-22T16:00:32.772Z,33.60
2018-08-22T16:03:02.646Z,34.60
2018-08-22T16:05:31.482Z,35.40
2018-08-22T16:08:00.561Z,35.90
2018-08-22T16:10:29.387Z,36.30
2018-08-22T16:12:58.589Z,35.30
2018-08-22T16:15:27.952Z,36.30
2018-08-22T16:17:57.438Z,35.60
2018-08-22T16:20:26.927Z,35.40
2018-08-22T16:22:55.551Z,35.70
2018-08-22T16:25:29.050Z,35.60
2018-08-22T16:27:57.569Z,36.10
2018-08-22T16:30:26.470Z,36.10
2018-08-22T16:32:55.839Z,36.00
2018-08-22T16:35:24.355Z,35.40
2018-08-22T16:38:01.923Z,35.60
2018-08-22T16:40:36.265Z,35.90
2018-08-22T16:43:04.857Z,36.60
2018-08-22T16:45:40.190Z,36.10
2018-08-22T16:48:08.674Z,35.60
2018-08-22T16:50:37.199Z,36.40
2018-08-22T16:53:05.712Z,36.90
2018-08-22T16:55:34.188Z,37.60
2018-08-22T16:58:02.683Z,38.20
2018-08-22T17:00:38.462Z,38.00
2018-08-22T17:03:08.170Z,38.40
2018-08-22T17:05:36.777Z,38.00
2018-08-22T17:08:05.341Z,37.90
2018-08-22T17:10:50.791Z,37.80
2018-08-22T17:13:28.314Z,38.10
2018-08-22T17:15:57.598Z,38.50
2018-08-22T17:18:26.365Z,38.70
2018-08-22T17:20:54.969Z,38.70
2018-08-22T17:23:23.529Z,38.90
2018-08-22T17:25:52.049Z,39.40
2018-08-22T17:28:40.033Z,39.30
2018-08-22T17:31:09.750Z,39.30
2018-08-22T17:33:39.446Z,39.40
2018-08-22T17:36:09.101Z,39.50
2018-08-22T17:38:37.588Z,40.20
2018-08-22T17:41:06.281Z,39.80
2018-08-22T17:43:54.813Z,39.70
2018-08-22T17:46:24.573Z,40.20
2018-08-22T17:48:53.061Z,41.00
2018-08-22T17:51:22.269Z,41.50
2018-08-22T17:53:50.786Z,42.00
2018-08-22T18:07:51.418Z,44.30
2018-08-22T18:10:19.926Z,45.30
2018-08-22T18:12:48.414Z,45.10
2018-08-22T18:15:16.926Z,45.70
2018-08-22T18:17:46.271Z,45.30
2018-08-22T18:20:15.863Z,45.90
2018-08-22T18:22:45.096Z,46.20
2018-08-22T18:25:13.580Z,46.20
2018-08-22T18:27:42.174Z,47.00
2018-08-22T18:30:11.767Z,47.70
2018-08-22T18:32:40.357Z,48.70
2018-08-22T18:35:10.906Z,49.40
2018-08-22T18:37:40.148Z,49.90
2018-08-22T18:40:30.814Z,50.20
2018-08-22T18:43:03.526Z,51.00
2018-08-22T18:47:43.805Z,51.70
2018-08-22T18:50:12.425Z,51.30
2018-08-22T18:52:40.960Z,52.50
2018-08-22T18:55:09.459Z,52.50
2018-08-22T18:57:38.000Z,52.70
2018-08-22T19:00:08.353Z,53.40
2018-08-22T19:02:36.841Z,53.70
2018-08-22T19:05:18.576Z,53.40
2018-08-22T19:07:58.816Z,53.80
2018-08-22T19:10:30.614Z,53.90
2018-08-22T19:13:04.433Z,54.30
2018-08-22T19:15:33.214Z,53.50
2018-08-22T19:18:02.273Z,53.90
2018-08-22T19:20:30.801Z,53.90
2018-08-22T19:22:59.306Z,53.40
2018-08-22T19:25:27.816Z,53.40
2018-08-22T19:27:56.317Z,53.90
2018-08-22T19:30:24.868Z,54.80
2018-08-22T19:32:53.381Z,55.10
2018-08-22T19:35:23.045Z,55.60
2018-08-22T19:37:55.785Z,55.60
2018-08-22T19:40:25.683Z,56.00
2018-08-22T19:42:54.183Z,56.10
2018-08-22T19:45:23.164Z,56.90
2018-08-22T19:47:51.659Z,57.80
2018-08-22T19:50:20.141Z,58.60
2018-08-22T19:52:48.832Z,60.10
2018-08-22T19:55:17.385Z,59.70
2018-08-22T19:57:45.952Z,60.40
2018-08-22T20:00:15.142Z,61.00
2018-08-22T20:02:43.646Z,60.70
2018-08-22T20:05:12.858Z,61.00
2018-08-22T20:07:42.881Z,60.80
2018-08-22T20:10:11.585Z,60.80
2018-08-22T20:12:54.088Z,59.90
2018-08-22T20:15:22.993Z,60.50
2018-08-22T20:17:52.647Z,61.00
2018-08-22T20:20:21.704Z,61.40
2018-08-22T20:22:52.420Z,61.70
2018-08-22T20:25:20.986Z,62.10
2018-08-22T20:27:49.578Z,62.30
2018-08-22T20:30:19.295Z,62.00
2018-08-22T20:32:58.830Z,62.20
2018-08-22T20:35:32.429Z,62.70
2018-08-22T20:38:02.138Z,62.80
2018-08-22T20:40:30.737Z,63.60
2018-08-22T20:42:59.293Z,63.60
2018-08-22T20:45:32.224Z,63.80
2018-08-22T20:48:06.000Z,64.20
2018-08-22T20:50:35.198Z,64.80
2018-08-22T20:53:06.050Z,65.20
2018-08-22T20:55:34.732Z,65.70
2018-08-22T20:58:04.109Z,65.70
2018-08-22T21:00:34.061Z,65.90
2018-08-22T21:03:02.634Z,66.30
2018-08-22T21:05:31.186Z,67.30
2018-08-22T21:07:59.914Z,68.00
2018-08-22T21:10:28.466Z,68.60
2018-08-22T21:12:56.971Z,68.40
2018-08-22T21:15:25.519Z,68.70
2018-08-22T21:17:54.071Z,69.50
2018-08-22T21:20:25.728Z,70.00
2018-08-22T21:22:55.766Z,70.20
2018-08-22T21:25:24.231Z,70.40
2018-08-22T21:27:53.296Z,71.00
2018-08-22T21:30:22.170Z,71.70
2018-08-22T21:32:50.834Z,71.20
2018-08-22T21:35:23.737Z,71.70
2018-08-22T21:37:53.144Z,71.50
2018-08-22T21:40:22.189Z,71.80
2018-08-22T21:42:50.683Z,72.20
2018-08-22T21:45:19.225Z,72.00
2018-08-22T21:47:47.882Z,72.20
2018-08-22T21:50:17.733Z,72.30
2018-08-22T21:52:53.210Z,73.40
2018-08-22T21:55:26.858Z,74.30
2018-08-22T21:57:55.378Z,74.00
2018-08-22T22:00:27.044Z,73.90
2018-08-22T22:02:56.021Z,74.20
2018-08-22T22:05:35.761Z,74.60
2018-08-22T22:08:05.082Z,74.40
2018-08-22T22:10:34.930Z,74.70
2018-08-22T22:13:03.451Z,75.50
2018-08-22T22:15:37.290Z,75.50
2018-08-22T22:18:07.211Z,75.40
2018-08-22T22:20:35.718Z,75.00
2018-08-22T22:23:04.285Z,74.50
2018-08-22T22:25:33.527Z,74.50
2018-08-22T22:28:02.181Z,74.80
2018-08-22T22:36:32.762Z,74.80
